Time;durP1;ratioP1;P1;durP2;ratioP2;P2;SDS_P1;SDS_P2;PMS_P1;PMS_P2;Temp;Humidity;BMP_temperature;BMP_pressure;BME280_temperature;BME280_humidity;BME280_pressure;Samples;Min_cycle;Max_cycle;Signal;HPM_P1;HPM_P2
2021/08/12 00:01:58;;;;;;;10.73;9.57;;;;;;;;;;5033506;28;20851;-56
2021/08/12 00:04:25;;;;;;;9.40;8.47;;;;;;;;;;5033491;28;20514;-56
2021/08/12 00:06:52;;;;;;;10.10;8.50;;;;;;;;;;5034019;28;20858;-56
2021/08/12 00:09:19;;;;;;;8.80;8.00;;;;;;;;;;5033584;28;20445;-56
2021/08/12 00:11:47;;;;;;;9.10;8.03;;;;;;;;;;5033387;28;20495;-56
2021/08/12 00:14:15;;;;;;;9.40;8.27;;;;;;;;;;5033548;28;20530;-56
2021/08/12 00:16:43;;;;;;;16.53;9.20;;;;;;;;;;5034005;28;20498;-56
2021/08/12 00:19:11;;;;;;;10.73;9.43;;;;;;;;;;5033891;28;20448;-56
2021/08/12 00:21:39;;;;;;;13.37;8.70;;;;;;;;;;5033675;28;20453;-56
2021/08/12 00:24:07;;;;;;;9.00;8.17;;;;;;;;;;5035050;28;20477;-56
2021/08/12 00:26:34;;;;;;;8.97;8.17;;;;;;;;;;5037331;28;20429;-56
2021/08/12 00:29:04;;;;;;;9.13;8.33;;;;;;;;;;5037319;28;20445;-57
2021/08/12 00:31:32;;;;;;;9.50;8.57;;;;;;;;;;5037349;28;20524;-56
2021/08/12 00:34:00;;;;;;;12.60;8.93;;;;;;;;;;5037166;28;20580;-57
2021/08/12 00:36:27;;;;;;;9.40;7.90;;;;;;;;;;5037346;28;20453;-57
2021/08/12 00:38:54;;;;;;;9.30;8.40;;;;;;;;;;5036990;28;20445;-56
2021/08/12 00:41:21;;;;;;;10.30;8.83;;;;;;;;;;5037305;28;20487;-56
2021/08/12 00:43:49;;;;;;;10.70;9.00;;;;;;;;;;5037142;28;20522;-56
2021/08/12 00:46:16;;;;;;;11.60;8.70;;;;;;;;;;5037226;28;20990;-56
2021/08/12 00:48:44;;;;;;;10.23;8.27;;;;;;;;;;5036717;28;20940;-56
2021/08/12 00:51:12;;;;;;;11.30;8.90;;;;;;;;;;5036648;28;20952;-57
2021/08/12 00:53:39;;;;;;;10.67;9.13;;;;;;;;;;5036460;28;20480;-56
2021/08/12 00:56:09;;;;;;;9.97;8.97;;;;;;;;;;5036853;28;20441;-57
2021/08/12 00:58:36;;;;;;;10.83;8.87;;;;;;;;;;5036833;28;20487;-57
2021/08/12 01:01:04;;;;;;;9.20;8.30;;;;;;;;;;5037207;28;20445;-56
2021/08/12 01:03:31;;;;;;;10.60;8.17;;;;;;;;;;5036769;28;20464;-56
2021/08/12 01:06:00;;;;;;;10.63;9.50;;;;;;;;;;5037918;28;20545;-56
2021/08/12 01:08:34;;;;;;;10.93;9.00;;;;;;;;;;5037913;28;20441;-56
2021/08/12 01:11:06;;;;;;;10.13;9.13;;;;;;;;;;5036852;28;20770;-57
2021/08/12 01:13:40;;;;;;;9.80;8.80;;;;;;;;;;5036887;28;20513;-57
2021/08/12 01:16:09;;;;;;;8.87;8.00;;;;;;;;;;5036675;28;20445;-56
2021/08/12 01:18:37;;;;;;;10.13;9.23;;;;;;;;;;5036470;28;20850;-56
2021/08/12 01:21:17;;;;;;;10.50;9.00;;;;;;;;;;5037217;28;20444;-56
2021/08/12 01:23:44;;;;;;;10.30;9.20;;;;;;;;;;5036257;28;20469;-57
2021/08/12 01:26:12;;;;;;;10.20;9.17;;;;;;;;;;5036044;28;20426;-56
2021/08/12 01:28:43;;;;;;;9.63;8.63;;;;;;;;;;5036412;28;20444;-56
2021/08/12 01:31:17;;;;;;;9.50;8.53;;;;;;;;;;5036181;28;20528;-57
2021/08/12 01:33:49;;;;;;;10.60;9.60;;;;;;;;;;5035585;28;20546;-56
2021/08/12 01:36:18;;;;;;;10.70;9.60;;;;;;;;;;5034993;28;20441;-55
2021/08/12 01:38:47;;;;;;;11.20;8.93;;;;;;;;;;5035682;28;20449;-55
2021/08/12 01:41:14;;;;;;;10.97;8.73;;;;;;;;;;5035877;28;20449;-55
2021/08/12 01:43:41;;;;;;;13.60;10.73;;;;;;;;;;5035605;28;20473;-56
2021/08/12 01:46:09;;;;;;;9.70;8.70;;;;;;;;;;5035863;28;20506;-56
2021/08/12 01:48:37;;;;;;;11.30;10.20;;;;;;;;;;5036447;28;20452;-55
2021/08/12 01:51:05;;;;;;;10.10;9.10;;;;;;;;;;5035733;28;20441;-55
2021/08/12 01:53:35;;;;;;;9.90;8.90;;;;;;;;;;5035553;28;20584;-55
2021/08/12 01:56:02;;;;;;;22.50;12.57;;;;;;;;;;5035681;28;20522;-55
2021/08/12 01:58:30;;;;;;;11.00;9.90;;;;;;;;;;5035602;28;20449;-55
2021/08/12 02:00:58;;;;;;;10.83;9.73;;;;;;;;;;5035587;28;20856;-55
2021/08/12 02:03:26;;;;;;;11.80;10.60;;;;;;;;;;5035440;28;20496;-55
2021/08/12 02:05:55;;;;;;;11.40;9.27;;;;;;;;;;5035439;28;20628;-55
2021/08/12 02:08:22;;;;;;;11.33;10.07;;;;;;;;;;5035198;28;21007;-54
2021/08/12 02:10:51;;;;;;;10.70;8.73;;;;;;;;;;5035404;28;20476;-55
2021/08/12 02:13:19;;;;;;;13.30;9.00;;;;;;;;;;5035235;28;20480;-55
2021/08/12 02:15:46;;;;;;;9.87;8.97;;;;;;;;;;5035404;28;20453;-55
2021/08/12 02:18:13;;;;;;;10.63;9.63;;;;;;;;;;5035248;28;20444;-55
2021/08/12 02:20:42;;;;;;;10.40;9.40;;;;;;;;;;5035273;28;20448;-56
2021/08/12 02:23:11;;;;;;;10.70;9.60;;;;;;;;;;5035244;28;20449;-55
2021/08/12 02:25:39;;;;;;;11.03;8.80;;;;;;;;;;5034703;28;21006;-55
2021/08/12 02:28:09;;;;;;;10.13;9.13;;;;;;;;;;5034641;28;20995;-55
2021/08/12 02:30:37;;;;;;;11.77;8.97;;;;;;;;;;5034975;28;20449;-54
2021/08/12 02:33:06;;;;;;;11.50;9.10;;;;;;;;;;5034429;28;20441;-55
2021/08/12 02:35:34;;;;;;;10.67;9.00;;;;;;;;;;5034833;28;20503;-55
2021/08/12 02:38:02;;;;;;;9.87;8.93;;;;;;;;;;5034541;28;20449;-54
2021/08/12 02:40:29;;;;;;;10.10;9.20;;;;;;;;;;5034548;28;20445;-54
2021/08/12 02:42:57;;;;;;;11.20;10.00;;;;;;;;;;5034657;28;20506;-56
2021/08/12 02:45:27;;;;;;;11.03;9.80;;;;;;;;;;5034360;28;20477;-55
2021/08/12 02:47:55;;;;;;;9.30;8.47;;;;;;;;;;5033350;28;20515;-54
2021/08/12 02:50:23;;;;;;;10.40;9.50;;;;;;;;;;5034618;28;20527;-54
2021/08/12 02:52:50;;;;;;;14.67;10.17;;;;;;;;;;5034547;28;20523;-55
2021/08/12 02:55:20;;;;;;;11.57;9.77;;;;;;;;;;5035099;28;20485;-54
2021/08/12 02:57:47;;;;;;;11.50;10.30;;;;;;;;;;5034429;28;20442;-55
2021/08/12 03:00:14;;;;;;;10.40;9.30;;;;;;;;;;5034368;28;20453;-55
2021/08/12 03:02:46;;;;;;;11.23;10.03;;;;;;;;;;5034029;28;20453;-55
2021/08/12 03:05:14;;;;;;;10.87;9.87;;;;;;;;;;5033902;28;20548;-55
2021/08/12 03:07:42;;;;;;;11.20;9.60;;;;;;;;;;5034540;28;20507;-55
2021/08/12 03:10:10;;;;;;;11.20;10.20;;;;;;;;;;5034581;28;20852;-56
2021/08/12 03:12:37;;;;;;;11.43;9.77;;;;;;;;;;5034602;28;20502;-55
2021/08/12 03:15:05;;;;;;;12.07;10.80;;;;;;;;;;5034133;28;20481;-56
2021/08/12 03:17:32;;;;;;;12.80;9.80;;;;;;;;;;5034225;28;20453;-56
2021/08/12 03:20:01;;;;;;;11.13;10.10;;;;;;;;;;5034460;28;20456;-55
2021/08/12 03:22:28;;;;;;;10.57;9.67;;;;;;;;;;5033979;28;20507;-55
2021/08/12 03:24:55;;;;;;;10.47;9.37;;;;;;;;;;5033757;28;20481;-54
2021/08/12 03:27:22;;;;;;;10.40;9.33;;;;;;;;;;5033962;28;20510;-55
2021/08/12 03:29:50;;;;;;;10.77;9.73;;;;;;;;;;5033819;28;20448;-54
2021/08/12 03:32:18;;;;;;;11.20;10.10;;;;;;;;;;5033448;28;20859;-54
2021/08/12 03:34:45;;;;;;;11.90;10.80;;;;;;;;;;5033564;28;20516;-55
2021/08/12 03:37:14;;;;;;;11.10;10.10;;;;;;;;;;5033435;28;20540;-55
2021/08/12 03:39:41;;;;;;;10.60;9.60;;;;;;;;;;5033376;28;20999;-55
2021/08/12 03:42:08;;;;;;;11.43;10.20;;;;;;;;;;5033312;28;20480;-55
2021/08/12 03:44:36;;;;;;;10.87;9.77;;;;;;;;;;5033529;28;20511;-55
2021/08/12 03:47:03;;;;;;;11.53;9.90;;;;;;;;;;5033618;28;20445;-55
2021/08/12 03:49:30;;;;;;;10.43;9.53;;;;;;;;;;5033230;28;20444;-55
2021/08/12 03:51:57;;;;;;;11.50;10.40;;;;;;;;;;5033225;28;20441;-55
2021/08/12 03:54:26;;;;;;;11.77;10.77;;;;;;;;;;5033482;28;20484;-55
2021/08/12 03:56:53;;;;;;;11.40;10.30;;;;;;;;;;5033439;28;20441;-55
2021/08/12 03:59:21;;;;;;;10.80;9.30;;;;;;;;;;5032733;28;20441;-54
2021/08/12 04:01:48;;;;;;;11.33;10.33;;;;;;;;;;5033215;28;20455;-55
2021/08/12 04:04:16;;;;;;;11.83;10.60;;;;;;;;;;5032887;28;20469;-55
2021/08/12 04:08:28;;;;;;;11.97;10.87;;;;;;;;;;5091387;28;20572;-55
2021/08/12 04:10:56;;;;;;;12.00;10.80;;;;;;;;;;5090553;28;20438;-57
2021/08/12 04:13:23;;;;;;;11.43;10.40;;;;;;;;;;5090687;28;20470;-56
2021/08/12 04:15:50;;;;;;;12.00;10.90;;;;;;;;;;5090782;28;20442;-56
2021/08/12 04:18:17;;;;;;;12.37;10.60;;;;;;;;;;5090388;28;20446;-56
2021/08/12 04:20:44;;;;;;;13.63;10.97;;;;;;;;;;5090682;28;20438;-57
2021/08/12 04:23:12;;;;;;;11.87;10.63;;;;;;;;;;5090116;28;20996;-57
2021/08/12 04:25:41;;;;;;;11.20;10.10;;;;;;;;;;5091551;28;20442;-57
2021/08/12 04:28:09;;;;;;;11.77;10.57;;;;;;;;;;5090086;28;21080;-57
2021/08/12 04:30:36;;;;;;;11.53;10.33;;;;;;;;;;5090247;28;20443;-57
2021/08/12 04:33:03;;;;;;;11.03;9.90;;;;;;;;;;5090518;28;20512;-56
2021/08/12 04:35:31;;;;;;;12.10;9.70;;;;;;;;;;5090144;28;20926;-57
2021/08/12 04:37:59;;;;;;;10.67;9.57;;;;;;;;;;5090048;28;20434;-57
2021/08/12 04:40:26;;;;;;;10.47;9.40;;;;;;;;;;5090426;28;20438;-57
2021/08/12 04:42:55;;;;;;;11.03;9.83;;;;;;;;;;5089970;28;20935;-56
2021/08/12 04:45:23;;;;;;;16.53;10.40;;;;;;;;;;5090456;28;20490;-56
2021/08/12 04:47:50;;;;;;;12.27;9.33;;;;;;;;;;5089754;28;20471;-56
2021/08/12 04:50:17;;;;;;;11.03;9.90;;;;;;;;;;5089914;28;20438;-56
2021/08/12 04:52:44;;;;;;;10.83;9.70;;;;;;;;;;5089712;28;20450;-56
2021/08/12 04:55:12;;;;;;;11.77;10.60;;;;;;;;;;5089746;28;20516;-57
2021/08/12 04:57:39;;;;;;;10.80;9.80;;;;;;;;;;5089447;28;20923;-56
2021/08/12 05:00:09;;;;;;;10.53;9.53;;;;;;;;;;5089670;28;20450;-56
2021/08/12 05:02:36;;;;;;;10.77;9.73;;;;;;;;;;5089925;28;20859;-55
2021/08/12 05:05:03;;;;;;;11.40;9.50;;;;;;;;;;5089381;28;20463;-56
2021/08/12 05:07:30;;;;;;;11.40;10.30;;;;;;;;;;5089315;28;20482;-55
2021/08/12 05:09:58;;;;;;;11.40;9.43;;;;;;;;;;5089595;28;20519;-56
2021/08/12 05:12:26;;;;;;;10.17;9.00;;;;;;;;;;5089538;28;20449;-56
2021/08/12 05:14:53;;;;;;;11.53;10.53;;;;;;;;;;5090174;28;20932;-58
2021/08/12 05:17:22;;;;;;;12.63;9.40;;;;;;;;;;5089129;28;20447;-56
2021/08/12 05:19:49;;;;;;;9.63;8.83;;;;;;;;;;5075443;28;20875;-57
2021/08/12 05:22:19;;;;;;;9.93;9.00;;;;;;;;;;5076405;28;20473;-59
2021/08/12 05:24:46;;;;;;;9.17;8.37;;;;;;;;;;5075941;28;20467;-57
2021/08/12 05:27:14;;;;;;;9.17;8.27;;;;;;;;;;5075827;28;20482;-57
2021/08/12 05:29:41;;;;;;;9.23;8.00;;;;;;;;;;5075757;28;20501;-57
2021/08/12 05:32:09;;;;;;;9.10;8.33;;;;;;;;;;5075709;28;20509;-57
2021/08/12 05:34:37;;;;;;;9.03;8.10;;;;;;;;;;5075549;28;20516;-57
2021/08/12 05:37:05;;;;;;;9.90;8.43;;;;;;;;;;5075693;28;20437;-57
2021/08/12 05:39:32;;;;;;;8.80;7.80;;;;;;;;;;5075704;28;20802;-57
2021/08/12 05:41:59;;;;;;;8.20;7.50;;;;;;;;;;5075341;28;20443;-58
2021/08/12 05:44:26;;;;;;;9.43;8.50;;;;;;;;;;5075550;28;20876;-56
2021/08/12 05:46:54;;;;;;;9.40;7.77;;;;;;;;;;5075324;28;20471;-57
2021/08/12 05:49:23;;;;;;;9.97;8.40;;;;;;;;;;5075373;28;20449;-58
2021/08/12 05:51:52;;;;;;;9.53;8.40;;;;;;;;;;5074874;28;20799;-57
2021/08/12 05:54:19;;;;;;;8.43;7.57;;;;;;;;;;5075216;28;20491;-58
2021/08/12 05:56:46;;;;;;;8.80;7.50;;;;;;;;;;5075261;28;20501;-57
2021/08/12 05:59:14;;;;;;;9.03;8.23;;;;;;;;;;5075350;28;20856;-57
2021/08/12 06:01:41;;;;;;;9.90;8.87;;;;;;;;;;5074779;28;21009;-57
2021/08/12 06:04:08;;;;;;;9.40;8.50;;;;;;;;;;5074666;28;20979;-58
2021/08/12 06:06:38;;;;;;;9.23;8.33;;;;;;;;;;5074826;28;20459;-57
2021/08/12 06:09:07;;;;;;;9.53;8.53;;;;;;;;;;5074673;28;20530;-57
2021/08/12 06:11:34;;;;;;;9.03;7.70;;;;;;;;;;5074843;28;20844;-57
2021/08/12 06:14:01;;;;;;;10.60;9.03;;;;;;;;;;5074935;28;20603;-57
2021/08/12 06:16:29;;;;;;;9.27;8.20;;;;;;;;;;5074976;28;20452;-56
2021/08/12 06:18:56;;;;;;;10.47;8.00;;;;;;;;;;5075728;28;20534;-58
2021/08/12 06:21:24;;;;;;;8.57;7.77;;;;;;;;;;5075022;28;20501;-57
2021/08/12 06:23:51;;;;;;;8.77;7.87;;;;;;;;;;5075778;28;20513;-57
2021/08/12 06:26:20;;;;;;;8.53;7.83;;;;;;;;;;5076091;28;20546;-57
2021/08/12 06:28:49;;;;;;;8.57;7.50;;;;;;;;;;5075346;28;20472;-57
2021/08/12 06:31:16;;;;;;;8.27;7.37;;;;;;;;;;5075308;28;20440;-58
2021/08/12 06:33:44;;;;;;;7.63;6.93;;;;;;;;;;5075561;28;20530;-57
2021/08/12 06:36:11;;;;;;;10.00;8.40;;;;;;;;;;5074491;28;20453;-57
2021/08/12 06:38:38;;;;;;;8.47;7.77;;;;;;;;;;5074311;28;20440;-56
2021/08/12 06:41:06;;;;;;;9.80;7.17;;;;;;;;;;5074069;28;20499;-57
2021/08/12 06:43:34;;;;;;;8.20;7.50;;;;;;;;;;5074204;28;20525;-56
2021/08/12 06:46:01;;;;;;;8.30;7.50;;;;;;;;;;5074168;28;20448;-57
2021/08/12 06:48:29;;;;;;;10.70;6.87;;;;;;;;;;5074217;28;20647;-57
2021/08/12 06:50:56;;;;;;;7.57;6.80;;;;;;;;;;5073903;28;20848;-57
2021/08/12 06:53:23;;;;;;;6.77;6.17;;;;;;;;;;5074153;28;20461;-56
2021/08/12 06:55:50;;;;;;;8.30;6.57;;;;;;;;;;5073992;28;20854;-57
2021/08/12 06:58:17;;;;;;;7.73;6.80;;;;;;;;;;5073664;28;20491;-57
2021/08/12 07:00:46;;;;;;;6.83;6.10;;;;;;;;;;5074071;28;20445;-58
2021/08/12 07:03:13;;;;;;;8.73;6.17;;;;;;;;;;5073620;28;20465;-58
2021/08/12 07:05:41;;;;;;;7.67;6.67;;;;;;;;;;5074680;28;20496;-58
2021/08/12 07:08:08;;;;;;;6.63;6.13;;;;;;;;;;5073915;28;20497;-59
2021/08/12 07:10:36;;;;;;;6.90;6.30;;;;;;;;;;5074632;28;20829;-59
2021/08/12 07:13:04;;;;;;;7.40;6.70;;;;;;;;;;5074091;28;20819;-57
2021/08/12 07:15:31;;;;;;;7.20;6.50;;;;;;;;;;5074223;28;20499;-58
2021/08/12 07:17:59;;;;;;;6.93;6.20;;;;;;;;;;5073813;28;20492;-58
2021/08/12 07:20:27;;;;;;;7.73;6.97;;;;;;;;;;5073692;28;20988;-56
2021/08/12 07:22:54;;;;;;;6.73;6.10;;;;;;;;;;5073422;28;20476;-58
2021/08/12 07:25:21;;;;;;;6.50;5.90;;;;;;;;;;5073332;28;20447;-57
2021/08/12 07:27:50;;;;;;;6.73;6.10;;;;;;;;;;5072963;28;20561;-57
2021/08/12 07:30:17;;;;;;;6.43;5.83;;;;;;;;;;5073385;28;20450;-57
2021/08/12 07:32:45;;;;;;;7.30;6.60;;;;;;;;;;5073517;28;20447;-57
2021/08/12 07:35:14;;;;;;;6.73;5.77;;;;;;;;;;5073965;28;20475;-57
2021/08/12 07:37:41;;;;;;;6.90;5.63;;;;;;;;;;5073274;28;20442;-57
2021/08/12 07:40:09;;;;;;;6.10;5.50;;;;;;;;;;5073390;28;20538;-57
2021/08/12 07:42:36;;;;;;;6.73;5.97;;;;;;;;;;5073305;28;20498;-57
2021/08/12 07:45:05;;;;;;;6.70;6.10;;;;;;;;;;5073163;28;20547;-56
2021/08/12 07:47:32;;;;;;;9.30;6.10;;;;;;;;;;5072980;28;20476;-58
2021/08/12 07:50:00;;;;;;;7.83;6.20;;;;;;;;;;5073144;28;20443;-58
2021/08/12 07:52:28;;;;;;;6.33;5.80;;;;;;;;;;5072792;28;20535;-58
2021/08/12 07:54:56;;;;;;;9.90;6.20;;;;;;;;;;5072879;28;20518;-57
2021/08/12 07:57:23;;;;;;;8.63;6.10;;;;;;;;;;5073083;28;20521;-58
2021/08/12 07:59:50;;;;;;;6.60;6.00;;;;;;;;;;5073223;28;20475;-56
2021/08/12 08:02:17;;;;;;;5.90;5.40;;;;;;;;;;5073002;28;20452;-56
2021/08/12 08:04:46;;;;;;;7.90;6.10;;;;;;;;;;5072923;28;20459;-56
2021/08/12 08:07:14;;;;;;;6.77;5.87;;;;;;;;;;5072838;28;20467;-57
2021/08/12 08:09:42;;;;;;;6.57;5.93;;;;;;;;;;5072947;28;20498;-57
2021/08/12 08:12:10;;;;;;;6.90;6.30;;;;;;;;;;5073417;28;20976;-57
2021/08/12 08:14:37;;;;;;;6.13;5.63;;;;;;;;;;5073587;28;20474;-57
2021/08/12 08:17:04;;;;;;;8.83;6.80;;;;;;;;;;5073236;28;20796;-57
2021/08/12 08:19:32;;;;;;;6.60;5.63;;;;;;;;;;5073151;28;20506;-57
2021/08/12 08:21:59;;;;;;;6.13;5.63;;;;;;;;;;5072909;28;20453;-57
2021/08/12 08:24:26;;;;;;;5.70;5.17;;;;;;;;;;5072879;28;20466;-57
2021/08/12 08:26:55;;;;;;;7.17;6.57;;;;;;;;;;5072337;28;20992;-58
2021/08/12 08:29:22;;;;;;;6.57;5.97;;;;;;;;;;5072491;28;20900;-58
2021/08/12 08:31:49;;;;;;;5.60;5.20;;;;;;;;;;5073337;28;20467;-58
2021/08/12 08:34:16;;;;;;;7.97;6.00;;;;;;;;;;5072628;28;20475;-57
2021/08/12 08:36:44;;;;;;;6.10;5.53;;;;;;;;;;5072640;28;20987;-58
2021/08/12 08:39:11;;;;;;;6.07;5.40;;;;;;;;;;5072534;28;20440;-57
2021/08/12 08:41:39;;;;;;;8.13;6.17;;;;;;;;;;5072737;28;20449;-58
2021/08/12 08:44:08;;;;;;;6.83;6.10;;;;;;;;;;5072835;28;20563;-58
2021/08/12 08:46:35;;;;;;;5.60;5.10;;;;;;;;;;5072678;28;20491;-58
2021/08/12 08:49:03;;;;;;;6.47;5.43;;;;;;;;;;5072637;28;20477;-58
2021/08/12 08:51:32;;;;;;;6.40;5.80;;;;;;;;;;5072747;28;20450;-57
2021/08/12 08:53:59;;;;;;;5.50;5.00;;;;;;;;;;5074335;28;20460;-58
2021/08/12 08:56:27;;;;;;;6.57;5.83;;;;;;;;;;5076543;28;20450;-57
2021/08/12 08:58:54;;;;;;;5.43;4.93;;;;;;;;;;5075979;28;20475;-57
2021/08/12 09:01:23;;;;;;;5.50;5.00;;;;;;;;;;5076062;28;20500;-58
2021/08/12 09:03:50;;;;;;;7.67;4.93;;;;;;;;;;5075855;28;20888;-58
2021/08/12 09:06:17;;;;;;;5.67;5.17;;;;;;;;;;5075843;28;20506;-58
2021/08/12 09:08:44;;;;;;;5.57;5.03;;;;;;;;;;5076462;28;20468;-57
2021/08/12 09:11:12;;;;;;;5.97;5.47;;;;;;;;;;5075984;28;20525;-58
2021/08/12 09:13:39;;;;;;;6.80;5.27;;;;;;;;;;5075745;28;20467;-58
2021/08/12 09:16:06;;;;;;;5.60;5.10;;;;;;;;;;5075975;28;20468;-58
2021/08/12 09:18:35;;;;;;;7.47;5.00;;;;;;;;;;5076421;28;20447;-58
2021/08/12 09:21:20;;;;;;;5.57;5.07;;;;;;;;;;5076600;28;20855;-58
2021/08/12 09:23:57;;;;;;;5.97;5.13;;;;;;;;;;5076356;28;20508;-58
2021/08/12 09:26:25;;;;;;;5.40;4.90;;;;;;;;;;5077812;28;20485;-58
2021/08/12 09:28:53;;;;;;;6.20;5.10;;;;;;;;;;5075631;28;20491;-58
2021/08/12 09:31:22;;;;;;;6.37;4.80;;;;;;;;;;5076134;28;20490;-57
2021/08/12 09:33:56;;;;;;;5.70;5.20;;;;;;;;;;5076018;28;20614;-57
2021/08/12 09:36:30;;;;;;;5.33;4.37;;;;;;;;;;5075670;28;20843;-59
2021/08/12 09:39:07;;;;;;;4.50;4.10;;;;;;;;;;5075723;28;20448;-57
2021/08/12 09:41:38;;;;;;;5.37;4.80;;;;;;;;;;5075251;28;20540;-59
2021/08/12 09:44:05;;;;;;;5.47;4.93;;;;;;;;;;5075453;28;20502;-59
2021/08/12 09:46:35;;;;;;;6.53;5.93;;;;;;;;;;5075172;28;20505;-58
2021/08/12 09:49:04;;;;;;;7.30;5.00;;;;;;;;;;5076272;28;20517;-59
2021/08/12 09:51:34;;;;;;;5.07;4.07;;;;;;;;;;5075525;28;20500;-59
2021/08/12 09:54:04;;;;;;;5.47;4.90;;;;;;;;;;5075009;28;20463;-59
2021/08/12 09:56:32;;;;;;;5.53;5.07;;;;;;;;;;5075647;28;20502;-59
2021/08/12 09:59:06;;;;;;;5.57;5.07;;;;;;;;;;5075509;28;20447;-59
2021/08/12 10:01:33;;;;;;;4.70;4.30;;;;;;;;;;5075629;28;20893;-58
2021/08/12 10:04:00;;;;;;;4.63;3.87;;;;;;;;;;5075386;28;20982;-57
2021/08/12 10:06:30;;;;;;;5.73;5.23;;;;;;;;;;5075380;28;20469;-59
2021/08/12 10:08:58;;;;;;;5.00;4.50;;;;;;;;;;5075215;28;20504;-58
2021/08/12 10:11:27;;;;;;;6.30;4.83;;;;;;;;;;5075293;28;20513;-58
2021/08/12 10:13:55;;;;;;;5.60;4.70;;;;;;;;;;5075060;28;20881;-57
2021/08/12 10:16:22;;;;;;;4.93;4.53;;;;;;;;;;5074855;28;20460;-58
2021/08/12 10:18:50;;;;;;;5.33;4.83;;;;;;;;;;5074514;28;20960;-59
2021/08/12 10:21:18;;;;;;;4.60;4.20;;;;;;;;;;5074457;28;20440;-59
2021/08/12 10:23:55;;;;;;;5.00;4.60;;;;;;;;;;5074646;28;20474;-58
2021/08/12 10:26:25;;;;;;;5.60;4.60;;;;;;;;;;5074781;28;20433;-58
2021/08/12 10:28:54;;;;;;;6.47;4.40;;;;;;;;;;5074180;28;20828;-59
2021/08/12 10:31:24;;;;;;;5.47;4.40;;;;;;;;;;5074469;28;20450;-59
2021/08/12 10:33:51;;;;;;;7.80;4.67;;;;;;;;;;5074458;28;21025;-59
2021/08/12 10:36:19;;;;;;;5.43;4.93;;;;;;;;;;5074080;28;20455;-59
2021/08/12 10:38:46;;;;;;;7.03;5.33;;;;;;;;;;5074342;28;20958;-59
2021/08/12 10:41:16;;;;;;;5.37;4.87;;;;;;;;;;5074743;28;20939;-59
2021/08/12 10:43:45;;;;;;;5.93;5.20;;;;;;;;;;5074315;28;20465;-58
2021/08/12 10:46:14;;;;;;;6.03;5.40;;;;;;;;;;5074799;28;20498;-57
2021/08/12 10:48:42;;;;;;;5.53;5.03;;;;;;;;;;5074514;28;20488;-58
2021/08/12 10:51:12;;;;;;;5.00;4.60;;;;;;;;;;5074974;28;20453;-58
2021/08/12 10:53:39;;;;;;;5.37;4.30;;;;;;;;;;5074041;28;20891;-58
2021/08/12 10:56:11;;;;;;;5.70;4.57;;;;;;;;;;5074331;28;20450;-59
2021/08/12 10:58:53;;;;;;;5.30;4.80;;;;;;;;;;5074095;28;20492;-59
2021/08/12 11:01:34;;;;;;;6.63;5.03;;;;;;;;;;5071847;28;21009;-58
2021/08/12 11:04:03;;;;;;;5.50;4.90;;;;;;;;;;5073918;28;20457;-59
2021/08/12 11:06:37;;;;;;;5.20;4.70;;;;;;;;;;5073687;28;20458;-59
2021/08/12 11:09:07;;;;;;;4.80;4.30;;;;;;;;;;5073682;28;20484;-58
2021/08/12 11:11:54;;;;;;;4.67;4.23;;;;;;;;;;5073859;28;20428;-58
2021/08/12 11:14:36;;;;;;;4.80;4.13;;;;;;;;;;5073686;28;20480;-57
2021/08/12 11:17:05;;;;;;;6.07;5.33;;;;;;;;;;5060539;28;20786;-59
2021/08/12 11:19:36;;;;;;;5.43;4.90;;;;;;;;;;5073701;28;20452;-60
2021/08/12 11:22:03;;;;;;;5.53;5.03;;;;;;;;;;5073604;28;20536;-59
2021/08/12 11:24:50;;;;;;;5.43;4.93;;;;;;;;;;5073116;28;20515;-59
2021/08/12 11:27:33;;;;;;;4.67;4.17;;;;;;;;;;5073140;28;20514;-60
2021/08/12 11:30:26;;;;;;;4.93;4.53;;;;;;;;;;5073407;28;20469;-58
2021/08/12 11:33:12;;;;;;;4.77;4.20;;;;;;;;;;5073222;28;20522;-58
2021/08/12 11:35:54;;;;;;;5.80;4.57;;;;;;;;;;5073485;28;20453;-58
2021/08/12 11:38:22;;;;;;;4.63;3.93;;;;;;;;;;5072924;28;20438;-58
2021/08/12 11:40:49;;;;;;;4.60;4.20;;;;;;;;;;5073572;28;20445;-59
2021/08/12 11:43:17;;;;;;;4.87;4.43;;;;;;;;;;5072944;28;20547;-59
2021/08/12 11:45:44;;;;;;;7.53;4.40;;;;;;;;;;5073069;28;20461;-58
2021/08/12 11:48:13;;;;;;;5.20;4.70;;;;;;;;;;5072968;28;20514;-59
2021/08/12 11:50:41;;;;;;;5.40;4.90;;;;;;;;;;5073234;28;20838;-59
2021/08/12 11:53:08;;;;;;;4.67;3.80;;;;;;;;;;5072998;28;20458;-59
2021/08/12 11:55:37;;;;;;;5.73;3.80;;;;;;;;;;5072953;28;20453;-59
2021/08/12 11:58:05;;;;;;;6.97;4.20;;;;;;;;;;5072935;28;21005;-58
2021/08/12 12:00:32;;;;;;;4.80;3.60;;;;;;;;;;5073213;28;20448;-59
2021/08/12 12:03:01;;;;;;;6.57;4.40;;;;;;;;;;5073335;28;20445;-60
2021/08/12 12:05:29;;;;;;;5.90;4.03;;;;;;;;;;5073164;28;20495;-59
2021/08/12 12:07:56;;;;;;;5.83;4.40;;;;;;;;;;5072642;28;20519;-58
2021/08/12 12:10:28;;;;;;;8.83;3.93;;;;;;;;;;5072852;28;20913;-58
2021/08/12 12:13:08;;;;;;;6.70;4.33;;;;;;;;;;5072995;28;20477;-57
2021/08/12 12:15:36;;;;;;;7.27;4.00;;;;;;;;;;5072790;28;20929;-58
2021/08/12 12:18:04;;;;;;;4.50;3.70;;;;;;;;;;5072854;28;20445;-58
2021/08/12 12:20:31;;;;;;;4.00;3.60;;;;;;;;;;5073023;28;20438;-58
2021/08/12 12:22:59;;;;;;;5.90;4.20;;;;;;;;;;5073810;28;20452;-60
2021/08/12 12:25:27;;;;;;;4.67;3.70;;;;;;;;;;5073523;28;20854;-58
2021/08/12 12:27:57;;;;;;;6.60;3.83;;;;;;;;;;5073711;28;20455;-58
2021/08/12 12:30:25;;;;;;;4.90;4.50;;;;;;;;;;5077006;28;20566;-58
2021/08/12 12:33:01;;;;;;;5.20;3.87;;;;;;;;;;5077750;28;20499;-59
2021/08/12 12:35:29;;;;;;;4.83;3.80;;;;;;;;;;5077146;28;20448;-60
2021/08/12 12:37:56;;;;;;;6.27;3.87;;;;;;;;;;5076882;28;20449;-59
2021/08/12 12:40:24;;;;;;;4.33;3.93;;;;;;;;;;5076449;28;20440;-57
2021/08/12 12:42:52;;;;;;;4.13;3.70;;;;;;;;;;5077076;28;20446;-58
2021/08/12 12:45:21;;;;;;;4.60;3.73;;;;;;;;;;5076684;28;20469;-61
2021/08/12 12:47:48;;;;;;;3.90;3.60;;;;;;;;;;5076494;28;20844;-59
2021/08/12 12:50:17;;;;;;;4.87;3.90;;;;;;;;;;5077010;28;20536;-57
2021/08/12 12:53:00;;;;;;;8.87;4.07;;;;;;;;;;5076314;28;20450;-58
2021/08/12 12:55:29;;;;;;;4.10;3.70;;;;;;;;;;5076301;28;20495;-57
2021/08/12 12:58:01;;;;;;;5.10;4.20;;;;;;;;;;5075961;28;21017;-59
2021/08/12 13:00:31;;;;;;;5.10;4.37;;;;;;;;;;5076412;28;20423;-57
2021/08/12 13:02:58;;;;;;;4.10;3.70;;;;;;;;;;5076089;28;20445;-58
2021/08/12 13:05:26;;;;;;;4.43;3.77;;;;;;;;;;5076161;28;20454;-59
2021/08/12 13:08:08;;;;;;;4.73;4.00;;;;;;;;;;5076275;28;20880;-58
2021/08/12 13:10:35;;;;;;;5.17;4.77;;;;;;;;;;5075497;28;20476;-58
2021/08/12 13:13:02;;;;;;;4.27;3.83;;;;;;;;;;5075713;28;20866;-59
2021/08/12 13:15:31;;;;;;;5.17;4.67;;;;;;;;;;5075348;28;20448;-59
2021/08/12 13:17:59;;;;;;;4.57;4.17;;;;;;;;;;5075981;28;20519;-58
2021/08/12 13:20:27;;;;;;;4.10;3.73;;;;;;;;;;5076163;28;20445;-59
2021/08/12 13:22:58;;;;;;;6.60;4.00;;;;;;;;;;5075698;28;20930;-58
2021/08/12 13:25:26;;;;;;;6.43;4.47;;;;;;;;;;5075579;28;20490;-59
2021/08/12 13:27:54;;;;;;;4.80;3.80;;;;;;;;;;5075529;28;20450;-58
2021/08/12 13:30:29;;;;;;;4.20;3.80;;;;;;;;;;5075643;28;20522;-59
2021/08/12 13:32:58;;;;;;;3.67;3.37;;;;;;;;;;5075366;28;20425;-60
2021/08/12 13:35:26;;;;;;;4.00;3.57;;;;;;;;;;5075310;28;20444;-59
2021/08/12 13:37:54;;;;;;;5.00;4.23;;;;;;;;;;5075636;28;20441;-59
2021/08/12 13:40:21;;;;;;;4.70;3.80;;;;;;;;;;5074749;28;20440;-59
2021/08/12 13:42:49;;;;;;;5.27;4.10;;;;;;;;;;5075783;28;20448;-59
2021/08/12 13:45:16;;;;;;;6.53;3.80;;;;;;;;;;5075100;28;20531;-59
2021/08/12 13:47:43;;;;;;;4.60;4.20;;;;;;;;;;5075864;28;20503;-59
2021/08/12 13:50:12;;;;;;;3.80;3.50;;;;;;;;;;5075618;28;20835;-58
2021/08/12 13:52:40;;;;;;;4.33;3.80;;;;;;;;;;5075810;28;20450;-57
2021/08/12 13:55:09;;;;;;;5.17;3.97;;;;;;;;;;5075663;28;20660;-60
2021/08/12 13:57:36;;;;;;;5.93;3.80;;;;;;;;;;5075364;28;20960;-59
2021/08/12 14:00:04;;;;;;;4.70;4.20;;;;;;;;;;5075463;28;20449;-58
2021/08/12 14:02:31;;;;;;;5.00;4.13;;;;;;;;;;5075529;28;20481;-58
2021/08/12 14:04:58;;;;;;;6.20;4.20;;;;;;;;;;5074939;28;20469;-57
2021/08/12 14:07:27;;;;;;;3.60;3.30;;;;;;;;;;5074501;28;20506;-58
2021/08/12 14:09:54;;;;;;;3.93;3.57;;;;;;;;;;5074663;28;21077;-59
2021/08/12 14:12:21;;;;;;;6.03;3.60;;;;;;;;;;5075480;28;20441;-58
2021/08/12 14:14:49;;;;;;;5.77;3.50;;;;;;;;;;5076664;28;20521;-57
2021/08/12 14:17:16;;;;;;;4.13;3.80;;;;;;;;;;5077186;28;20446;-59
2021/08/12 14:19:43;;;;;;;3.93;3.53;;;;;;;;;;5077332;28;20494;-57
2021/08/12 14:22:11;;;;;;;4.23;3.83;;;;;;;;;;5077571;28;20849;-58
2021/08/12 14:24:39;;;;;;;7.37;4.30;;;;;;;;;;5075125;28;20865;-57
2021/08/12 14:27:07;;;;;;;6.00;3.93;;;;;;;;;;5074971;28;20497;-59
2021/08/12 14:29:34;;;;;;;4.50;4.10;;;;;;;;;;5074277;28;20880;-59
2021/08/12 14:32:02;;;;;;;3.83;3.53;;;;;;;;;;5074420;28;20442;-58
2021/08/12 14:34:30;;;;;;;5.27;3.90;;;;;;;;;;5073931;28;20477;-57
2021/08/12 14:36:58;;;;;;;5.40;3.93;;;;;;;;;;5074237;28;20452;-58
2021/08/12 14:39:26;;;;;;;4.87;3.90;;;;;;;;;;5074057;28;20454;-60
2021/08/12 14:41:54;;;;;;;5.33;3.87;;;;;;;;;;5074583;28;20499;-58
2021/08/12 14:44:22;;;;;;;4.37;3.97;;;;;;;;;;5074562;28;20473;-59
2021/08/12 14:46:49;;;;;;;4.43;4.03;;;;;;;;;;5074190;28;20933;-58
2021/08/12 14:49:16;;;;;;;5.50;4.00;;;;;;;;;;5074123;28;20441;-59